Time;durP1;ratioP1;P1;durP2;ratioP2;P2;SDS_P1;SDS_P2;PMS_P1;PMS_P2;Temp;Humidity;BMP_temperature;BMP_pressure;BME280_temperature;BME280_humidity;BME280_pressure;Samples;Min_cycle;Max_cycle;Signal;HPM_P1;HPM_P2
2023/08/29 00:01:44;;;;;;;4.43;3.47;;;;;;;25.24;50.85;93942.69;5050923;28;20202;-43
2023/08/29 00:04:11;;;;;;;4.05;3.72;;;;;;;25.28;50.83;93935.16;5051503;28;20738;-44
2023/08/29 00:06:37;;;;;;;5.43;3.70;;;;;;;25.28;51.17;93929.91;5051460;28;20195;-44
2023/08/29 00:09:04;;;;;;;6.22;3.55;;;;;;;25.25;51.14;93936.41;5050989;28;20183;-43
2023/08/29 00:11:32;;;;;;;4.70;3.20;;;;;;;25.21;51.32;93937.16;5051256;28;20260;-43
2023/08/29 00:13:59;;;;;;;6.28;3.60;;;;;;;25.16;51.21;93931.88;5050693;28;20586;-43
2023/08/29 00:16:26;;;;;;;3.15;2.80;;;;;;;25.18;51.29;93928.00;5051565;28;20191;-44
2023/08/29 00:18:53;;;;;;;4.35;3.63;;;;;;;25.10;51.58;93912.72;5050858;28;20187;-43
2023/08/29 00:21:20;;;;;;;4.20;3.08;;;;;;;25.13;51.56;93927.13;5051513;28;20179;-42
2023/08/29 00:23:48;;;;;;;6.28;3.78;;;;;;;24.88;51.58;93899.66;5051119;28;20218;-43
2023/08/29 00:26:15;;;;;;;5.20;3.20;;;;;;;25.05;51.75;93933.59;5051067;28;20867;-44
2023/08/29 00:28:46;;;;;;;5.60;3.40;;;;;;;25.02;51.61;93928.84;5050902;28;20222;-44
2023/08/29 00:31:17;;;;;;;3.53;3.17;;;;;;;24.92;51.89;93921.69;5050738;28;20606;-45
2023/08/29 00:33:44;;;;;;;4.60;3.65;;;;;;;24.90;52.03;93922.94;5049954;28;20191;-44
2023/08/29 00:36:11;;;;;;;7.80;2.95;;;;;;;24.86;52.35;93925.25;5050698;28;20210;-42
2023/08/29 00:38:38;;;;;;;9.70;3.95;;;;;;;24.83;52.56;93928.38;5050504;28;20290;-42
2023/08/29 00:41:04;;;;;;;4.78;3.10;;;;;;;24.79;52.65;93922.06;5050228;28;20199;-44
2023/08/29 00:43:31;;;;;;;3.55;3.25;;;;;;;24.75;52.87;93926.19;5050449;28;20729;-43
2023/08/29 00:45:59;;;;;;;3.53;3.22;;;;;;;24.79;52.74;93929.91;5050155;28;20194;-43
2023/08/29 00:48:26;;;;;;;5.45;3.65;;;;;;;24.75;52.83;93924.38;5050270;28;20675;-42
2023/08/29 00:50:54;;;;;;;6.47;3.38;;;;;;;24.71;53.29;93925.88;5049873;28;20229;-42
2023/08/29 00:53:20;;;;;;;5.95;3.53;;;;;;;24.71;53.13;93917.25;5050468;28;20191;-43
2023/08/29 00:55:48;;;;;;;4.25;3.65;;;;;;;24.65;53.48;93923.44;5049877;28;20274;-45
2023/08/29 00:58:14;;;;;;;3.58;3.03;;;;;;;24.55;53.89;93929.34;5050091;28;20895;-44
2023/08/29 01:00:43;;;;;;;4.72;3.30;;;;;;;24.52;53.82;93929.81;5049727;28;20249;-42
2023/08/29 01:03:11;;;;;;;4.68;3.75;;;;;;;24.47;53.95;93922.72;5050132;28;20226;-43
2023/08/29 01:05:38;;;;;;;4.20;2.97;;;;;;;24.47;53.80;93924.53;5049910;28;20640;-43
2023/08/29 01:08:05;;;;;;;5.10;3.78;;;;;;;24.41;54.02;93917.69;5050068;28;20198;-45
2023/08/29 01:10:42;;;;;;;6.95;3.78;;;;;;;24.37;54.57;93921.78;5050374;28;20237;-43
2023/08/29 01:13:20;;;;;;;4.57;3.25;;;;;;;24.29;54.81;93915.91;5049929;28;20662;-43
2023/08/29 01:15:51;;;;;;;6.40;3.70;;;;;;;24.15;55.19;93899.03;5049571;28;20206;-43
2023/08/29 01:18:21;;;;;;;6.70;3.30;;;;;;;24.25;54.87;93914.03;5049728;28;20187;-45
2023/08/29 01:20:50;;;;;;;3.75;3.38;;;;;;;24.21;55.44;93903.28;5049656;28;20194;-43
2023/08/29 01:23:25;;;;;;;4.05;3.65;;;;;;;24.21;55.44;93890.19;5049871;28;20619;-43
2023/08/29 01:25:57;;;;;;;7.50;3.40;;;;;;;24.14;55.59;93886.22;5049684;28;20257;-41
2023/08/29 01:28:26;;;;;;;7.80;3.50;;;;;;;24.10;55.52;93888.50;5049312;28;20191;-44
2023/08/29 01:30:54;;;;;;;5.32;3.50;;;;;;;24.12;55.79;93875.97;5049357;28;20218;-48
2023/08/29 01:33:21;;;;;;;4.68;3.50;;;;;;;24.09;55.83;93876.47;5049711;28;20709;-44
2023/08/29 01:35:48;;;;;;;5.65;3.92;;;;;;;24.02;55.72;93862.78;5049368;28;20313;-45
2023/08/29 01:38:17;;;;;;;4.30;2.80;;;;;;;24.12;55.54;93883.03;5049868;28;20191;-44
2023/08/29 01:40:44;;;;;;;4.80;3.42;;;;;;;24.11;55.75;93874.41;5049795;28;20216;-44
2023/08/29 01:43:10;;;;;;;3.70;3.40;;;;;;;24.08;55.89;93877.50;5049590;28;20278;-44
2023/08/29 01:45:38;;;;;;;5.80;3.60;;;;;;;24.01;55.94;93882.13;5049600;28;20199;-44
2023/08/29 01:48:06;;;;;;;3.97;3.40;;;;;;;24.04;56.14;93890.25;5049392;28;20198;-42
2023/08/29 01:50:36;;;;;;;6.57;3.53;;;;;;;23.83;56.16;93857.03;5049305;28;20222;-43
2023/08/29 01:53:03;;;;;;;6.18;3.30;;;;;;;23.94;56.19;93871.81;5048854;28;20252;-42
2023/08/29 01:55:32;;;;;;;4.30;3.05;;;;;;;23.79;56.19;93853.31;5049628;28;20195;-43
2023/08/29 01:58:00;;;;;;;6.28;3.50;;;;;;;23.86;56.65;93885.28;5050023;28;20213;-44
2023/08/29 02:00:28;;;;;;;7.53;4.07;;;;;;;23.89;56.63;93884.03;5049423;28;20570;-43
2023/08/29 02:02:56;;;;;;;5.03;3.63;;;;;;;23.87;56.39;93884.25;5048944;28;20186;-44
2023/08/29 02:05:23;;;;;;;4.90;3.70;;;;;;;23.83;56.86;93883.16;5049333;28;20190;-44
2023/08/29 02:07:50;;;;;;;5.30;3.95;;;;;;;23.83;56.76;93877.13;5049351;28;20286;-44
2023/08/29 02:10:20;;;;;;;7.53;3.50;;;;;;;23.84;56.36;93883.97;5049595;28;20207;-45
2023/08/29 02:12:48;;;;;;;5.88;3.75;;;;;;;23.79;56.82;93884.66;5048903;28;20187;-43
2023/08/29 02:15:15;;;;;;;5.43;3.35;;;;;;;23.80;57.04;93896.69;5049278;28;20191;-43
2023/08/29 02:17:42;;;;;;;6.30;3.60;;;;;;;23.74;57.03;93890.59;5048840;28;20191;-44
2023/08/29 02:20:11;;;;;;;4.40;3.65;;;;;;;23.72;57.35;93891.88;5049263;28;20235;-43
2023/08/29 02:22:38;;;;;;;5.22;4.32;;;;;;;23.71;57.36;93895.53;5048947;28;20592;-44
2023/08/29 02:25:06;;;;;;;6.38;4.32;;;;;;;23.72;57.30;93887.44;5049177;28;20639;-44
2023/08/29 02:27:33;;;;;;;4.38;3.50;;;;;;;23.66;57.54;93887.59;5049503;28;20187;-45
2023/08/29 02:30:00;;;;;;;4.00;3.60;;;;;;;23.71;57.58;93872.81;5048431;28;20261;-44
2023/08/29 02:32:26;;;;;;;4.72;3.95;;;;;;;23.64;57.68;93866.94;5049024;28;20710;-43
2023/08/29 02:34:53;;;;;;;7.35;3.67;;;;;;;23.52;57.86;93856.56;5048797;28;20205;-43
2023/08/29 02:37:21;;;;;;;4.50;3.42;;;;;;;23.56;58.03;93867.31;5049338;28;20183;-44
2023/08/29 02:39:48;;;;;;;6.20;3.25;;;;;;;23.56;57.98;93867.31;5048642;28;20189;-45
2023/08/29 02:42:15;;;;;;;3.78;3.33;;;;;;;23.55;57.97;93870.97;5049103;28;20193;-45
2023/08/29 02:44:42;;;;;;;8.27;3.88;;;;;;;23.51;58.34;93875.09;5048915;28;20230;-43
2023/08/29 02:47:09;;;;;;;8.80;3.85;;;;;;;23.52;58.00;93874.03;5048995;28;20195;-43
2023/08/29 02:49:36;;;;;;;4.15;3.72;;;;;;;23.53;58.30;93867.78;5048689;28;20711;-43
2023/08/29 02:52:03;;;;;;;6.40;3.58;;;;;;;23.59;58.20;93869.47;5048867;28;20242;-44
2023/08/29 02:54:31;;;;;;;6.45;4.25;;;;;;;23.53;58.12;93873.84;5048660;28;20658;-43
2023/08/29 02:56:58;;;;;;;5.53;3.85;;;;;;;23.47;58.17;93866.16;5048880;28;20252;-43
2023/08/29 02:59:26;;;;;;;6.72;3.67;;;;;;;23.54;58.16;93875.41;5048901;28;20203;-43
2023/08/29 03:01:53;;;;;;;5.10;3.70;;;;;;;23.55;58.32;93886.63;5048738;28;20194;-44
2023/08/29 03:04:19;;;;;;;4.10;3.53;;;;;;;23.49;58.63;93890.19;5048631;28;20268;-45
2023/08/29 03:06:46;;;;;;;6.03;3.78;;;;;;;23.48;58.75;93881.56;5051590;28;20191;-45
2023/08/29 03:09:13;;;;;;;3.90;3.42;;;;;;;23.50;58.53;93886.56;5052355;28;20191;-41
2023/08/29 03:11:41;;;;;;;5.15;3.75;;;;;;;23.52;58.40;93881.88;5052276;28;20254;-45
2023/08/29 03:14:09;;;;;;;5.78;3.72;;;;;;;23.54;58.31;93885.06;5052418;28;20190;-43
2023/08/29 03:16:35;;;;;;;4.05;3.33;;;;;;;23.42;58.04;93851.19;5052264;28;20195;-44
2023/08/29 03:19:02;;;;;;;4.20;3.80;;;;;;;23.51;57.86;93868.03;5052368;28;20202;-44
2023/08/29 03:21:29;;;;;;;4.07;3.40;;;;;;;23.53;58.18;93878.22;5052042;28;20674;-45
2023/08/29 03:23:56;;;;;;;7.38;3.85;;;;;;;23.51;58.18;93869.88;5052040;28;20190;-41
2023/08/29 03:26:23;;;;;;;6.43;3.80;;;;;;;23.47;58.31;93872.16;5051811;28;20194;-42
2023/08/29 03:28:52;;;;;;;4.43;3.67;;;;;;;23.43;58.54;93863.22;5051927;28;20230;-44
2023/08/29 03:31:18;;;;;;;5.57;3.70;;;;;;;23.47;58.14;93863.53;5051592;28;20238;-44
2023/08/29 03:33:46;;;;;;;5.93;3.55;;;;;;;23.46;58.54;93861.97;5052100;28;20304;-44
2023/08/29 03:36:14;;;;;;;5.47;3.72;;;;;;;23.33;58.63;93851.84;5051945;28;20273;-44
2023/08/29 03:38:41;;;;;;;6.97;4.05;;;;;;;23.39;58.78;93861.31;5051817;28;20190;-43
2023/08/29 03:41:08;;;;;;;7.95;4.03;;;;;;;23.35;59.12;93861.00;5051692;28;20198;-43
2023/08/29 03:43:36;;;;;;;5.03;4.05;;;;;;;23.31;59.11;93865.09;5051770;28;20199;-44
2023/08/29 03:46:05;;;;;;;9.05;3.88;;;;;;;23.30;59.08;93860.91;5051990;28;20669;-42
2023/08/29 03:48:32;;;;;;;19.23;5.03;;;;;;;23.27;59.22;93862.19;5052055;28;20190;-43
2023/08/29 03:51:00;;;;;;;6.10;3.85;;;;;;;23.23;59.72;93861.09;5051471;28;20210;-43
2023/08/29 03:53:26;;;;;;;6.55;4.50;;;;;;;23.17;60.04;93859.41;5051340;28;20191;-44
2023/08/29 03:55:53;;;;;;;5.82;3.60;;;;;;;23.15;59.82;93853.66;5051431;28;20190;-43
2023/08/29 03:58:20;;;;;;;7.90;4.10;;;;;;;23.16;59.75;93855.22;5051694;28;20183;-43
2023/08/29 04:00:47;;;;;;;8.20;4.53;;;;;;;23.17;59.74;93848.97;5051168;28;20617;-42
2023/08/29 04:03:15;;;;;;;6.50;4.20;;;;;;;23.20;59.87;93858.94;5051183;28;20689;-43
2023/08/29 04:05:42;;;;;;;8.93;4.03;;;;;;;23.19;59.70;93852.16;5051504;28;20203;-43
2023/08/29 04:08:10;;;;;;;5.93;4.57;;;;;;;23.12;59.75;93828.03;5051402;28;20218;-44
2023/08/29 04:10:40;;;;;;;7.93;4.68;;;;;;;23.21;59.51;93851.91;5051553;28;20222;-45
2023/08/29 04:13:07;;;;;;;8.50;5.03;;;;;;;23.25;59.24;93847.78;5050992;28;20187;-44
2023/08/29 04:15:35;;;;;;;6.45;4.32;;;;;;;23.26;59.13;93850.16;5051113;28;20205;-44
2023/08/29 04:18:02;;;;;;;7.57;3.97;;;;;;;23.36;59.34;93851.34;5050916;28;20213;-44
2023/08/29 04:20:31;;;;;;;12.45;4.72;;;;;;;23.37;59.47;93847.72;5051150;28;20187;-43
2023/08/29 04:22:58;;;;;;;13.82;4.72;;;;;;;23.40;59.17;93855.06;5050942;28;20191;-43
2023/08/29 04:25:26;;;;;;;7.10;4.80;;;;;;;23.42;59.06;93853.81;5050844;28;20202;-44
2023/08/29 04:27:53;;;;;;;9.65;4.78;;;;;;;23.36;59.39;93853.94;5050854;28;20199;-43
2023/08/29 04:30:21;;;;;;;10.52;4.13;;;;;;;23.39;59.10;93845.66;5050556;28;20233;-49
2023/08/29 04:32:48;;;;;;;8.75;4.57;;;;;;;23.37;59.11;93834.69;5050919;28;20660;-44
2023/08/29 04:35:16;;;;;;;11.50;4.80;;;;;;;23.49;59.11;93846.63;5050767;28;20197;-44
2023/08/29 04:37:47;;;;;;;9.05;4.18;;;;;;;23.53;59.32;93863.38;5050800;28;20187;-45
2023/08/29 04:40:16;;;;;;;7.45;4.85;;;;;;;23.61;59.19;93858.78;5050227;28;20241;-43
2023/08/29 04:42:43;;;;;;;13.05;4.50;;;;;;;23.66;59.22;93853.66;5050863;28;20229;-43
2023/08/29 04:45:10;;;;;;;9.82;4.50;;;;;;;23.71;59.07;93857.16;5050378;28;20210;-44
2023/08/29 04:47:36;;;;;;;15.40;5.07;;;;;;;23.81;59.39;93850.50;5050329;28;20290;-43
2023/08/29 04:50:04;;;;;;;9.60;4.75;;;;;;;23.85;59.35;93852.38;5049993;28;20191;-43
2023/08/29 04:52:31;;;;;;;7.90;4.70;;;;;;;23.92;59.29;93858.22;5050534;28;20246;-43
2023/08/29 04:54:59;;;;;;;8.50;4.60;;;;;;;23.85;59.31;93838.53;5049825;28;20183;-44
2023/08/29 04:57:26;;;;;;;13.52;4.70;;;;;;;24.00;59.07;93847.34;5050217;28;20187;-44
2023/08/29 04:59:53;;;;;;;5.75;4.40;;;;;;;24.11;58.98;93842.28;5050238;28;20187;-44
2023/08/29 05:02:20;;;;;;;9.50;5.10;;;;;;;24.13;59.05;93832.34;5049957;28;20195;-45
2023/08/29 05:04:47;;;;;;;7.60;4.10;;;;;;;24.26;58.99;93832.78;5050466;28;20188;-44
2023/08/29 05:07:14;;;;;;;10.07;5.00;;;;;;;24.38;58.77;93834.53;5049939;28;20199;-45
2023/08/29 05:09:41;;;;;;;14.80;4.93;;;;;;;24.47;58.25;93843.50;5050070;28;20195;-43
2023/08/29 05:12:10;;;;;;;7.38;4.47;;;;;;;24.59;57.95;93833.72;5049782;28;20218;-43
2023/08/29 05:14:38;;;;;;;7.60;4.43;;;;;;;24.71;57.93;93834.38;5049950;28;20179;-42
2023/08/29 05:17:05;;;;;;;8.00;4.15;;;;;;;24.88;57.70;93836.09;5049991;28;20194;-43
2023/08/29 05:19:32;;;;;;;11.18;4.43;;;;;;;25.14;56.82;93837.16;5050129;28;20187;-43
2023/08/29 05:21:59;;;;;;;9.43;4.60;;;;;;;25.49;56.01;93831.41;5049619;28;20193;-43
2023/08/29 05:24:26;;;;;;;5.93;4.38;;;;;;;25.90;55.23;93829.06;5049748;28;20277;-42
2023/08/29 05:26:52;;;;;;;6.07;4.43;;;;;;;26.18;52.97;93830.53;5049627;28;20256;-43
2023/08/29 05:29:23;;;;;;;5.35;4.03;;;;;;;26.37;52.14;93833.47;5048981;28;20322;-44
2023/08/29 05:31:50;;;;;;;5.63;4.10;;;;;;;26.45;51.45;93791.84;5044325;28;20298;-44
2023/08/29 05:34:17;;;;;;;7.40;3.97;;;;;;;27.00;50.71;93824.47;5049690;28;20237;-44
2023/08/29 05:36:44;;;;;;;8.13;4.68;;;;;;;27.32;50.23;93833.19;5042574;28;20611;-46
2023/08/29 05:39:11;;;;;;;5.35;4.63;;;;;;;27.44;49.47;93828.47;5049890;28;20232;-43
2023/08/29 05:41:38;;;;;;;13.25;4.95;;;;;;;27.63;49.22;93837.38;5049613;28;20316;-43
2023/08/29 05:44:07;;;;;;;7.32;4.05;;;;;;;27.66;49.40;93844.72;5049343;28;20273;-42
2023/08/29 05:46:38;;;;;;;6.65;4.38;;;;;;;27.40;49.50;93822.94;5049024;28;20191;-44
2023/08/29 05:49:05;;;;;;;9.77;4.82;;;;;;;27.45;49.88;93837.91;5049210;28;20187;-43
2023/08/29 05:51:32;;;;;;;14.43;4.68;;;;;;;27.35;49.98;93832.66;5049571;28;20323;-43
2023/08/29 05:54:00;;;;;;;6.35;4.47;;;;;;;27.22;49.90;93829.50;5049594;28;20209;-43
2023/08/29 05:56:27;;;;;;;14.60;4.65;;;;;;;26.94;50.59;93807.16;5049477;28;21062;-44
2023/08/29 05:58:54;;;;;;;8.27;4.50;;;;;;;27.19;50.57;93842.38;5049696;28;20194;-43
2023/08/29 06:01:20;;;;;;;8.02;4.15;;;;;;;27.21;50.63;93841.06;5049418;28;20190;-43
2023/08/29 06:03:49;;;;;;;6.43;3.67;;;;;;;27.30;50.05;93832.69;5049125;28;20206;-44
2023/08/29 06:06:16;;;;;;;5.85;4.50;;;;;;;27.55;49.06;93826.59;5049206;28;20198;-43
2023/08/29 06:08:42;;;;;;;5.95;3.90;;;;;;;27.89;48.09;93834.72;5049148;28;20221;-44
2023/08/29 06:11:09;;;;;;;8.30;3.63;;;;;;;28.29;46.87;93848.84;5048910;28;20199;-44
2023/08/29 06:13:36;;;;;;;4.93;3.60;;;;;;;28.57;46.14;93848.22;5048965;28;20635;-43
2023/08/29 06:16:03;;;;;;;8.65;3.50;;;;;;;28.84;45.20;93845.16;5049142;28;20187;-44
2023/08/29 06:18:32;;;;;;;5.40;3.70;;;;;;;29.27;44.18;93844.66;5049473;28;20198;-45
2023/08/29 06:21:02;;;;;;;5.82;3.28;;;;;;;29.52;43.92;93843.69;5049172;28;20683;-42
2023/08/29 06:23:29;;;;;;;6.03;3.90;;;;;;;29.73;43.05;93837.97;5049038;28;20214;-43
2023/08/29 06:25:55;;;;;;;5.85;3.65;;;;;;;29.78;42.77;93841.63;5048841;28;20586;-44
2023/08/29 06:28:22;;;;;;;8.55;3.80;;;;;;;29.69;43.10;93842.22;5049006;28;20645;-43
2023/08/29 06:30:49;;;;;;;5.15;3.70;;;;;;;29.54;43.51;93855.53;5049093;28;20222;-44
2023/08/29 06:33:16;;;;;;;7.47;4.03;;;;;;;29.38;43.86;93846.16;5048710;28;20698;-44
2023/08/29 06:35:43;;;;;;;4.13;3.20;;;;;;;29.37;43.30;93832.22;5049124;28;20624;-44
2023/08/29 06:38:11;;;;;;;4.47;3.42;;;;;;;29.69;42.52;93841.44;5048725;28;20199;-43
2023/08/29 06:40:38;;;;;;;3.92;3.50;;;;;;;29.94;42.41;93835.16;5051587;28;20188;-45
2023/08/29 06:43:05;;;;;;;9.10;3.75;;;;;;;30.14;42.05;93831.50;5053082;28;20203;-43
2023/08/29 06:45:32;;;;;;;8.35;3.17;;;;;;;30.36;41.46;93845.00;5052348;28;20190;-44
2023/08/29 06:48:00;;;;;;;7.72;3.95;;;;;;;30.56;41.46;93848.47;5052707;28;20195;-44
2023/08/29 06:50:28;;;;;;;6.90;3.60;;;;;;;30.67;41.09;93844.63;5052057;28;20213;-45
2023/08/29 06:52:54;;;;;;;5.20;3.17;;;;;;;30.75;41.07;93837.97;5052454;28;20219;-45
2023/08/29 06:55:23;;;;;;;6.53;3.45;;;;;;;30.91;40.18;93834.81;5052713;28;20194;-46
2023/08/29 06:57:50;;;;;;;5.55;3.60;;;;;;;31.20;40.14;93832.03;5053092;28;20190;-44
2023/08/29 07:00:19;;;;;;;6.10;3.65;;;;;;;31.37;39.83;93846.59;5052324;28;20562;-47
2023/08/29 07:02:49;;;;;;;4.75;3.28;;;;;;;31.59;39.56;93830.91;5052040;28;20286;-43
2023/08/29 07:05:16;;;;;;;6.82;3.58;;;;;;;31.85;38.58;93839.22;5052105;28;20241;-43
2023/08/29 07:07:43;;;;;;;11.18;4.40;;;;;;;31.96;38.17;93835.31;5052046;28;20650;-43
2023/08/29 07:10:10;;;;;;;4.68;3.65;;;;;;;32.02;38.58;93832.56;5052250;28;20763;-43
2023/08/29 07:12:43;;;;;;;4.10;3.72;;;;;;;32.01;38.46;93829.16;5052226;28;20210;-44
2023/08/29 07:15:10;;;;;;;7.20;3.85;;;;;;;32.19;38.20;93846.00;5052211;28;20190;-44
2023/08/29 07:17:37;;;;;;;7.60;3.90;;;;;;;32.11;38.03;93839.53;5051834;28;20191;-43
2023/08/29 07:20:08;;;;;;;7.38;3.80;;;;;;;31.95;38.20;93849.63;5051819;28;20754;-43
2023/08/29 07:22:36;;;;;;;9.10;4.63;;;;;;;31.68;38.97;93854.81;5051582;28;20194;-44
2023/08/29 07:25:02;;;;;;;6.47;4.60;;;;;;;31.53;39.06;93855.06;5051918;28;20659;-43
2023/08/29 07:27:30;;;;;;;6.50;3.78;;;;;;;31.59;39.22;93856.56;5051772;28;20537;-43
2023/08/29 07:29:58;;;;;;;7.18;3.95;;;;;;;31.92;38.84;93858.13;5051909;28;20276;-43
2023/08/29 07:32:25;;;;;;;9.23;4.43;;;;;;;32.27;37.91;93849.84;5051581;28;20710;-42
2023/08/29 07:34:52;;;;;;;6.15;4.05;;;;;;;32.53;37.95;93844.84;5051776;28;20201;-44
2023/08/29 07:37:21;;;;;;;8.00;4.45;;;;;;;32.80;37.32;93854.63;5051258;28;20705;-44
2023/08/29 07:39:49;;;;;;;5.63;3.50;;;;;;;32.90;36.78;93849.91;5051777;28;20206;-45
2023/08/29 07:42:17;;;;;;;6.97;3.80;;;;;;;33.10;36.51;93839.94;5051265;28;20213;-45
2023/08/29 07:44:44;;;;;;;9.82;4.10;;;;;;;33.35;36.40;93852.63;5051597;28;20298;-44
2023/08/29 07:47:12;;;;;;;4.28;3.53;;;;;;;33.18;36.32;93836.59;5051487;28;20192;-44
2023/08/29 07:49:39;;;;;;;10.10;4.32;;;;;;;33.18;36.48;93840.03;5050826;28;20187;-44
2023/08/29 07:52:14;;;;;;;5.22;3.80;;;;;;;33.45;35.83;93843.66;5050923;28;20223;-44
2023/08/29 07:54:42;;;;;;;7.22;4.00;;;;;;;33.71;35.78;93841.19;5051612;28;20655;-44
2023/08/29 07:57:09;;;;;;;4.50;3.72;;;;;;;33.77;35.76;93828.59;5051686;28;20206;-44
2023/08/29 07:59:36;;;;;;;7.70;4.20;;;;;;;33.96;35.28;93837.13;5051249;28;20217;-44
2023/08/29 08:02:03;;;;;;;6.20;3.92;;;;;;;33.95;35.57;93836.31;5051448;28;20256;-45
2023/08/29 08:04:34;;;;;;;5.35;3.75;;;;;;;33.94;35.32;93837.41;5051095;28;20191;-45
2023/08/29 08:07:02;;;;;;;7.40;4.68;;;;;;;33.93;35.39;93827.09;5050520;28;20270;-44
2023/08/29 08:09:29;;;;;;;7.07;3.80;;;;;;;33.80;35.76;93828.75;5051011;28;20195;-45
2023/08/29 08:11:56;;;;;;;9.20;4.40;;;;;;;33.79;36.02;93827.19;5051289;28;20574;-44
2023/08/29 08:14:23;;;;;;;5.97;4.25;;;;;;;33.82;35.57;93833.75;5051003;28;20191;-45
2023/08/29 08:16:50;;;;;;;5.57;4.50;;;;;;;33.76;35.49;93827.78;5051070;28;20191;-43
2023/08/29 08:19:16;;;;;;;6.68;4.20;;;;;;;33.62;35.85;93829.75;5050722;28;20598;-45
2023/08/29 08:21:45;;;;;;;5.28;4.10;;;;;;;33.41;35.77;93827.53;5051321;28;20187;-45
2023/08/29 08:24:11;;;;;;;6.57;4.50;;;;;;;33.25;36.38;93822.91;5050487;28;20204;-44
2023/08/29 08:26:38;;;;;;;4.75;4.03;;;;;;;33.23;36.67;93820.56;5050701;28;20191;-45
2023/08/29 08:29:05;;;;;;;7.18;4.15;;;;;;;33.29;36.16;93810.63;5050465;28;20740;-45
2023/08/29 08:31:32;;;;;;;6.15;4.60;;;;;;;33.33;36.30;93798.31;5051010;28;20616;-44
2023/08/29 08:34:01;;;;;;;5.60;4.47;;;;;;;33.65;35.94;93805.28;5049785;28;20227;-44
2023/08/29 08:36:30;;;;;;;6.35;4.45;;;;;;;34.03;35.41;93808.28;5050580;28;20686;-44
2023/08/29 08:39:00;;;;;;;6.93;3.70;;;;;;;34.31;34.74;93784.16;5050982;28;20217;-44
2023/08/29 08:41:28;;;;;;;6.43;4.20;;;;;;;34.42;34.45;93801.38;5050386;28;20772;-44
2023/08/29 08:43:57;;;;;;;5.15;4.55;;;;;;;34.52;34.29;93803.00;5050599;28;20634;-44
2023/08/29 08:46:26;;;;;;;5.07;4.15;;;;;;;34.62;34.36;93784.09;5049850;28;20933;-45
2023/08/29 08:48:54;;;;;;;7.60;4.55;;;;;;;34.67;34.36;93800.69;5050302;28;20207;-44
2023/08/29 08:51:23;;;;;;;7.57;4.60;;;;;;;34.69;34.42;93803.03;5050125;28;20195;-44
2023/08/29 08:53:51;;;;;;;7.70;4.57;;;;;;;34.84;33.72;93796.47;5050748;28;20211;-45
2023/08/29 08:56:19;;;;;;;6.07;4.65;;;;;;;34.86;33.83;93797.72;5050077;28;20646;-44
2023/08/29 08:58:46;;;;;;;6.93;4.10;;;;;;;34.73;33.70;93790.69;5050561;28;20187;-44
2023/08/29 09:01:13;;;;;;;3.80;3.45;;;;;;;34.57;34.05;93795.66;5049841;28;20252;-46
2023/08/29 09:03:42;;;;;;;7.32;4.25;;;;;;;34.46;34.45;93805.00;5049468;28;20190;-43
2023/08/29 09:06:11;;;;;;;6.00;4.03;;;;;;;34.22;34.40;93800.06;5050384;28;20187;-44
2023/08/29 09:08:38;;;;;;;6.85;4.40;;;;;;;33.84;34.77;93795.22;5050074;28;20199;-44
2023/08/29 09:11:07;;;;;;;4.20;3.80;;;;;;;33.66;35.50;93782.97;5049911;28;20213;-44
2023/08/29 09:13:35;;;;;;;5.07;4.50;;;;;;;33.55;35.26;93792.25;5050343;28;20636;-44
2023/08/29 09:16:02;;;;;;;6.82;4.32;;;;;;;33.38;35.47;93790.28;5049895;28;20205;-44
2023/08/29 09:18:31;;;;;;;7.80;4.63;;;;;;;33.37;35.82;93784.16;5050343;28;20194;-43
2023/08/29 09:21:00;;;;;;;5.90;4.18;;;;;;;33.31;35.90;93779.31;5049804;28;20590;-46
2023/08/29 09:23:30;;;;;;;8.02;4.28;;;;;;;33.18;36.04;93776.41;5050375;28;20278;-45
2023/08/29 09:25:58;;;;;;;5.53;4.00;;;;;;;33.12;36.11;93775.00;5049962;28;20237;-44
2023/08/29 09:28:27;;;;;;;6.95;5.00;;;;;;;32.95;36.56;93772.22;5049653;28;20246;-42
2023/08/29 09:30:55;;;;;;;9.55;4.68;;;;;;;32.84;36.93;93776.91;5050054;28;20218;-43
2023/08/29 09:33:25;;;;;;;11.75;4.85;;;;;;;32.75;37.07;93778.72;5049614;28;20219;-43
2023/08/29 09:35:52;;;;;;;8.80;4.35;;;;;;;32.67;36.94;93782.06;5049863;28;20293;-44
2023/08/29 09:38:19;;;;;;;4.97;4.45;;;;;;;32.61;37.16;93784.06;5049333;28;20206;-45
2023/08/29 09:40:47;;;;;;;5.47;4.47;;;;;;;32.55;37.08;93784.44;5049826;28;20187;-44
2023/08/29 09:43:16;;;;;;;7.35;4.32;;;;;;;32.30;37.11;93781.22;5049294;28;20225;-43
2023/08/29 09:45:43;;;;;;;5.50;4.47;;;;;;;32.19;37.56;93783.28;5049759;28;20191;-43
2023/08/29 09:48:12;;;;;;;6.60;4.90;;;;;;;32.01;37.87;93784.19;5049460;28;20240;-43
2023/08/29 09:50:41;;;;;;;5.03;4.07;;;;;;;31.84;38.03;93781.34;5049535;28;20662;-44
2023/08/29 09:53:09;;;;;;;9.00;4.38;;;;;;;31.72;38.44;93784.41;5049647;28;20214;-44
2023/08/29 09:55:39;;;;;;;7.65;4.50;;;;;;;31.66;38.75;93783.72;5049568;28;20667;-45
2023/08/29 09:58:07;;;;;;;7.90;4.63;;;;;;;31.60;38.70;93779.59;5049483;28;20183;-45
2023/08/29 10:00:36;;;;;;;5.72;4.28;;;;;;;31.67;38.67;93782.66;5049565;28;20218;-44
2023/08/29 10:03:07;;;;;;;5.93;5.00;;;;;;;31.60;38.98;93782.22;5049301;28;20621;-43
2023/08/29 10:05:37;;;;;;;5.10;4.43;;;;;;;31.56;38.97;93775.19;5049920;28;20193;-44
2023/08/29 10:08:13;;;;;;;8.18;4.57;;;;;;;31.30;39.22;93749.19;5049704;28;20284;-45
2023/08/29 10:10:41;;;;;;;8.30;4.82;;;;;;;31.27;39.43;93773.53;5049758;28;20198;-44
2023/08/29 10:13:11;;;;;;;5.63;4.40;;;;;;;31.17;39.28;93761.25;5049548;28;20225;-46
2023/08/29 10:15:40;;;;;;;9.80;4.50;;;;;;;31.33;39.31;93771.63;5052531;28;20191;-44
2023/08/29 10:18:07;;;;;;;5.80;4.35;;;;;;;31.37;39.42;93768.09;5053325;28;20190;-43
2023/08/29 10:20:37;;;;;;;7.45;4.40;;;;;;;31.35;39.05;93769.50;5053572;28;20190;-46
2023/08/29 10:23:07;;;;;;;5.93;4.22;;;;;;;31.42;39.05;93764.59;5053135;28;20191;-45
2023/08/29 10:25:36;;;;;;;5.57;4.03;;;;;;;31.47;39.34;93756.56;5053669;28;20191;-44
2023/08/29 10:28:05;;;;;;;4.78;4.28;;;;;;;31.53;39.63;93752.78;5053194;28;20280;-44
2023/08/29 10:30:32;;;;;;;8.25;4.20;;;;;;;31.45;39.11;93756.88;5053066;28;20222;-45
2023/08/29 10:33:06;;;;;;;9.65;5.32;;;;;;;31.42;39.35;93752.16;5052792;28;20226;-44
2023/08/29 10:35:35;;;;;;;8.05;4.75;;;;;;;31.41;39.44;93744.53;5036461;28;20277;-45
2023/08/29 10:38:08;;;;;;;6.13;4.30;;;;;;;31.58;39.28;93750.03;5052548;28;20195;-44
2023/08/29 10:40:36;;;;;;;5.75;4.35;;;;;;;31.66;39.58;93752.00;5053153;28;20279;-45
2023/08/29 10:43:03;;;;;;;9.80;4.88;;;;;;;31.71;39.30;93751.91;5052956;28;20195;-45
2023/08/29 10:45:57;;;;;;;7.68;4.43;;;;;;;31.58;39.41;93742.09;5052803;28;20657;-45
2023/08/29 10:48:55;;;;;;;7.03;4.53;;;;;;;31.65;39.52;93744.34;4971363;28;20204;-43
2023/08/29 10:51:25;;;;;;;7.15;4.40;;;;;;;31.64;39.81;93740.94;4955290;28;20317;-43
2023/08/29 10:53:53;;;;;;;4.72;4.13;;;;;;;31.61;40.09;93735.47;4971680;28;20666;-44
2023/08/29 10:56:24;;;;;;;6.97;4.90;;;;;;;31.55;40.18;93728.69;4971529;28;20197;-44
2023/08/29 10:58:51;;;;;;;9.30;4.65;;;;;;;31.49;40.16;93735.94;4971568;28;20661;-44
2023/08/29 11:01:40;;;;;;;6.78;3.90;;;;;;;31.32;40.72;93733.84;4971475;28;20653;-43
2023/08/29 11:04:13;;;;;;;5.60;4.50;;;;;;;31.14;40.66;93732.00;4914190;29;20222;-45
2023/08/29 11:06:56;;;;;;;7.10;4.50;;;;;;;31.04;41.07;93732.94;4914220;29;20199;-45
2023/08/29 11:09:24;;;;;;;9.13;4.95;;;;;;;30.94;41.61;93731.25;4913822;29;20199;-45
2023/08/29 11:12:07;;;;;;;5.10;4.28;;;;;;;30.92;41.64;93724.72;4913949;29;20235;-45
2023/08/29 11:14:50;;;;;;;10.57;4.55;;;;;;;30.85;42.08;93732.22;4914050;29;20809;-45
2023/08/29 11:17:22;;;;;;;5.57;4.70;;;;;;;30.75;42.17;93730.50;4913825;29;20227;-43
2023/08/29 11:19:52;;;;;;;9.30;4.60;;;;;;;30.65;42.04;93731.41;4913452;29;20270;-45
2023/08/29 11:22:22;;;;;;;4.88;4.38;;;;;;;30.59;42.63;93723.84;4913746;29;20219;-44
2023/08/29 11:24:54;;;;;;;4.70;4.18;;;;;;;30.56;42.44;93725.19;4957154;28;20225;-44
2023/08/29 11:27:22;;;;;;;7.05;4.72;;;;;;;30.59;42.54;93723.84;4969835;28;20194;-44
2023/08/29 11:29:50;;;;;;;6.40;4.38;;;;;;;30.60;42.18;93723.56;4970767;28;20277;-44
2023/08/29 11:32:19;;;;;;;6.85;4.25;;;;;;;30.61;42.36;93713.78;4970884;28;20300;-43
2023/08/29 11:34:47;;;;;;;6.80;4.50;;;;;;;30.59;42.49;93714.06;4970959;28;20229;-44
2023/08/29 11:37:14;;;;;;;7.65;4.43;;;;;;;30.60;42.78;93720.91;4954726;28;20222;-43
2023/08/29 11:39:53;;;;;;;6.78;4.13;;;;;;;30.56;42.19;93709.38;4955249;28;20327;-44